Tri-Cities Regional Airport Airport (TRI)

Airport Diagram
Current Weather/Forecast (IFR Conditions)
METAR KTRI 241200Z 23003KT 2 1/2SM BKN007 BKN017 BKN022 19/18 A2999 RMK AO2 SFC VIS 10 T01940183
TAF KTRI 241120Z 2412/2512 00000KT 3SM BR BKN015 OVC040 FM241330 25005KT P6SM SCT050 FM250200 00000KT P6SM -SHRA BKN100

All Charts
General
Chart Name Download
AIRPORT DIAGRAM
TAKEOFF MINIMUMS
ALTERNATE MINIMUMS

Departures
Chart Name Download
KINGS TWO
KINGS TWO, CONT.1

Approaches
Chart Name Download
ILS OR LOC RWY 05
ILS OR LOC RWY 23
ILS RWY 23 (SA CAT I)
ILS RWY 23 (CAT II)
RNAV (GPS) RWY 05
RNAV (GPS) RWY 09
RNAV (GPS) RWY 23
RNAV (GPS) RWY 27


Inbound Traffic (Arrivals)

No inbound traffic.


Outbound Traffic (Departures)

No outbound traffic.